sensor_id;sensor_type;location;lat;lon;timestamp;pressure;altitude;pressure_sealevel;temperature;humidity
73151;BME280;61354;50.758;6.106;2022-07-22T00:00:14;99801.94;;;15.93;89.07
73151;BME280;61354;50.758;6.106;2022-07-22T00:02:40;99806.28;;;15.90;88.59
73151;BME280;61354;50.758;6.106;2022-07-22T00:05:06;99798.78;;;15.98;88.09
73151;BME280;61354;50.758;6.106;2022-07-22T00:07:32;99802.22;;;15.88;89.17
73151;BME280;61354;50.758;6.106;2022-07-22T00:09:58;99790.63;;;15.86;89.86
73151;BME280;61354;50.758;6.106;2022-07-22T00:12:24;99798.69;;;15.91;88.81
73151;BME280;61354;50.758;6.106;2022-07-22T00:14:49;99803.59;;;15.98;88.49
73151;BME280;61354;50.758;6.106;2022-07-22T00:17:15;99802.81;;;16.01;88.04
73151;BME280;61354;50.758;6.106;2022-07-22T00:19:40;99801.66;;;16.02;87.96
73151;BME280;61354;50.758;6.106;2022-07-22T00:22:06;99802.88;;;16.04;88.23
73151;BME280;61354;50.758;6.106;2022-07-22T00:24:31;99803.72;;;16.08;87.91
73151;BME280;61354;50.758;6.106;2022-07-22T00:26:57;99810.53;;;16.07;87.89
73151;BME280;61354;50.758;6.106;2022-07-22T00:29:22;99793.94;;;15.95;88.59
73151;BME280;61354;50.758;6.106;2022-07-22T00:31:48;99799.47;;;15.91;88.71
73151;BME280;61354;50.758;6.106;2022-07-22T00:34:14;99797.94;;;15.94;88.34
73151;BME280;61354;50.758;6.106;2022-07-22T00:36:39;99793.81;;;15.84;89.39
73151;BME280;61354;50.758;6.106;2022-07-22T00:39:05;99795.41;;;15.85;88.73
73151;BME280;61354;50.758;6.106;2022-07-22T00:41:30;99790.66;;;15.89;88.78
73151;BME280;61354;50.758;6.106;2022-07-22T00:44:02;99793.25;;;16.02;87.68
73151;BME280;61354;50.758;6.106;2022-07-22T00:46:29;99791.03;;;15.88;88.37
73151;BME280;61354;50.758;6.106;2022-07-22T00:48:55;99792.00;;;15.99;88.18
73151;BME280;61354;50.758;6.106;2022-07-22T00:51:22;99793.88;;;15.91;88.65
73151;BME280;61354;50.758;6.106;2022-07-22T00:53:47;99797.06;;;15.63;89.48
73151;BME280;61354;50.758;6.106;2022-07-22T00:56:14;99779.16;;;15.68;89.03
73151;BME280;61354;50.758;6.106;2022-07-22T00:58:40;99780.81;;;15.73;88.81
73151;BME280;61354;50.758;6.106;2022-07-22T01:01:06;99785.56;;;15.69;88.83
73151;BME280;61354;50.758;6.106;2022-07-22T01:03:35;99779.97;;;15.69;88.54
73151;BME280;61354;50.758;6.106;2022-07-22T01:06:01;99780.16;;;15.83;88.43
73151;BME280;61354;50.758;6.106;2022-07-22T01:08:27;99780.81;;;15.73;88.35
73151;BME280;61354;50.758;6.106;2022-07-22T01:10:52;99783.94;;;15.68;88.23
73151;BME280;61354;50.758;6.106;2022-07-22T01:13:18;99782.19;;;15.59;88.51
73151;BME280;61354;50.758;6.106;2022-07-22T01:15:44;99781.88;;;15.64;89.61
73151;BME280;61354;50.758;6.106;2022-07-22T01:18:09;99777.34;;;15.83;88.13
73151;BME280;61354;50.758;6.106;2022-07-22T01:20:35;99775.63;;;15.75;87.95
73151;BME280;61354;50.758;6.106;2022-07-22T01:23:01;99783.69;;;15.80;88.37
73151;BME280;61354;50.758;6.106;2022-07-22T01:25:27;99773.41;;;15.87;87.63
73151;BME280;61354;50.758;6.106;2022-07-22T01:27:53;99769.06;;;15.90;87.51
73151;BME280;61354;50.758;6.106;2022-07-22T01:30:19;99779.53;;;15.93;87.83
73151;BME280;61354;50.758;6.106;2022-07-22T01:32:44;99770.56;;;15.84;87.37
73151;BME280;61354;50.758;6.106;2022-07-22T01:35:10;99777.47;;;15.90;87.80
73151;BME280;61354;50.758;6.106;2022-07-22T01:37:36;99779.56;;;15.97;86.95
73151;BME280;61354;50.758;6.106;2022-07-22T01:40:02;99770.72;;;15.95;86.60
73151;BME280;61354;50.758;6.106;2022-07-22T01:42:28;99767.53;;;15.96;86.85
73151;BME280;61354;50.758;6.106;2022-07-22T01:44:53;99766.16;;;15.83;87.42
73151;BME280;61354;50.758;6.106;2022-07-22T01:47:19;99780.16;;;15.83;86.17
73151;BME280;61354;50.758;6.106;2022-07-22T01:49:44;99782.84;;;15.76;86.03
73151;BME280;61354;50.758;6.106;2022-07-22T01:52:10;99780.25;;;15.63;84.17
73151;BME280;61354;50.758;6.106;2022-07-22T01:54:35;99780.69;;;15.65;82.25
73151;BME280;61354;50.758;6.106;2022-07-22T01:57:01;99778.81;;;15.50;83.29
73151;BME280;61354;50.758;6.106;2022-07-22T01:59:27;99775.22;;;15.73;82.79
73151;BME280;61354;50.758;6.106;2022-07-22T02:01:53;99773.97;;;15.70;84.02
73151;BME280;61354;50.758;6.106;2022-07-22T02:04:19;99776.13;;;15.80;85.45
73151;BME280;61354;50.758;6.106;2022-07-22T02:06:44;99779.41;;;15.86;86.18
73151;BME280;61354;50.758;6.106;2022-07-22T02:09:10;99771.56;;;15.69;87.09
73151;BME280;61354;50.758;6.106;2022-07-22T02:11:35;99764.66;;;15.89;86.49
73151;BME280;61354;50.758;6.106;2022-07-22T02:14:01;99768.84;;;15.76;87.89
73151;BME280;61354;50.758;6.106;2022-07-22T02:16:27;99761.84;;;15.89;86.11
73151;BME280;61354;50.758;6.106;2022-07-22T02:18:52;99772.19;;;15.85;86.15
73151;BME280;61354;50.758;6.106;2022-07-22T02:21:18;99763.56;;;15.71;86.89
73151;BME280;61354;50.758;6.106;2022-07-22T02:23:44;99762.72;;;15.66;87.33
73151;BME280;61354;50.758;6.106;2022-07-22T02:26:10;99758.50;;;15.80;87.22
73151;BME280;61354;50.758;6.106;2022-07-22T02:28:35;99766.00;;;15.72;87.17
73151;BME280;61354;50.758;6.106;2022-07-22T02:31:01;99758.13;;;15.81;85.94
73151;BME280;61354;50.758;6.106;2022-07-22T02:33:26;99746.81;;;15.48;87.91
73151;BME280;61354;50.758;6.106;2022-07-22T02:35:52;99755.28;;;15.51;87.14
73151;BME280;61354;50.758;6.106;2022-07-22T02:38:17;99754.28;;;15.40;87.08
73151;BME280;61354;50.758;6.106;2022-07-22T02:40:43;99746.41;;;15.23;87.23
73151;BME280;61354;50.758;6.106;2022-07-22T02:43:08;99751.16;;;15.45;87.59
73151;BME280;61354;50.758;6.106;2022-07-22T02:45:34;99751.97;;;15.46;87.50
73151;BME280;61354;50.758;6.106;2022-07-22T02:47:59;99750.63;;;15.36;86.81
73151;BME280;61354;50.758;6.106;2022-07-22T02:50:25;99749.50;;;15.17;87.39
73151;BME280;61354;50.758;6.106;2022-07-22T02:52:51;99747.28;;;15.27;87.32
73151;BME280;61354;50.758;6.106;2022-07-22T02:55:17;99747.75;;;15.09;87.57
73151;BME280;61354;50.758;6.106;2022-07-22T02:57:43;99747.63;;;15.48;86.78
73151;BME280;61354;50.758;6.106;2022-07-22T03:00:09;99734.03;;;15.50;86.02
73151;BME280;61354;50.758;6.106;2022-07-22T03:02:37;99743.97;;;15.44;86.77
73151;BME280;61354;50.758;6.106;2022-07-22T03:05:04;99742.44;;;15.24;87.03
73151;BME280;61354;50.758;6.106;2022-07-22T03:07:30;99742.97;;;15.33;85.73
73151;BME280;61354;50.758;6.106;2022-07-22T03:09:55;99750.41;;;15.48;86.95
73151;BME280;61354;50.758;6.106;2022-07-22T03:12:21;99744.44;;;15.50;86.86
73151;BME280;61354;50.758;6.106;2022-07-22T03:14:46;99739.75;;;15.57;85.97
73151;BME280;61354;50.758;6.106;2022-07-22T03:17:11;99743.00;;;15.59;85.05
73151;BME280;61354;50.758;6.106;2022-07-22T03:19:37;99739.81;;;15.34;86.19
73151;BME280;61354;50.758;6.106;2022-07-22T03:22:02;99742.97;;;15.33;84.08
73151;BME280;61354;50.758;6.106;2022-07-22T03:24:28;99736.19;;;15.34;85.00
73151;BME280;61354;50.758;6.106;2022-07-22T03:26:54;99735.63;;;15.48;85.53
73151;BME280;61354;50.758;6.106;2022-07-22T03:29:19;99736.19;;;15.34;83.08
73151;BME280;61354;50.758;6.106;2022-07-22T03:31:45;99737.25;;;15.26;82.19
73151;BME280;61354;50.758;6.106;2022-07-22T03:34:10;99734.03;;;15.24;82.58
73151;BME280;61354;50.758;6.106;2022-07-22T03:36:36;99734.69;;;15.40;83.19
73151;BME280;61354;50.758;6.106;2022-07-22T03:39:01;99735.97;;;15.46;83.21
73151;BME280;61354;50.758;6.106;2022-07-22T03:41:27;99736.31;;;15.41;84.37
73151;BME280;61354;50.758;6.106;2022-07-22T03:43:52;99735.63;;;15.25;84.17
73151;BME280;61354;50.758;6.106;2022-07-22T03:46:18;99734.63;;;15.36;83.90
73151;BME280;61354;50.758;6.106;2022-07-22T03:48:43;99730.38;;;15.46;84.46
73151;BME280;61354;50.758;6.106;2022-07-22T03:51:09;99725.31;;;15.29;81.99
73151;BME280;61354;50.758;6.106;2022-07-22T03:53:34;99729.84;;;15.37;83.98
73151;BME280;61354;50.758;6.106;2022-07-22T03:56:00;99730.69;;;15.41;83.41
73151;BME280;61354;50.758;6.106;2022-07-22T03:58:26;99732.09;;;15.54;84.50
73151;BME280;61354;50.758;6.106;2022-07-22T04:00:53;99733.19;;;15.46;82.21
73151;BME280;61354;50.758;6.106;2022-07-22T04:03:19;99732.22;;;15.61;83.74
73151;BME280;61354;50.758;6.106;2022-07-22T04:05:45;99733.09;;;15.65;83.24
73151;BME280;61354;50.758;6.106;2022-07-22T04:08:11;99735.34;;;15.56;84.08
73151;BME280;61354;50.758;6.106;2022-07-22T04:10:37;99740.28;;;15.40;82.45
73151;BME280;61354;50.758;6.106;2022-07-22T04:13:03;99738.16;;;15.56;83.79
73151;BME280;61354;50.758;6.106;2022-07-22T04:15:29;99741.50;;;15.65;83.59
73151;BME280;61354;50.758;6.106;2022-07-22T04:17:54;99736.81;;;15.73;84.11
73151;BME280;61354;50.758;6.106;2022-07-22T04:20:20;99740.63;;;15.61;83.36
73151;BME280;61354;50.758;6.106;2022-07-22T04:22:45;99742.13;;;15.55;83.78
73151;BME280;61354;50.758;6.106;2022-07-22T04:25:11;99753.19;;;15.71;84.40
73151;BME280;61354;50.758;6.106;2022-07-22T04:27:36;99750.09;;;15.80;84.04
73151;BME280;61354;50.758;6.106;2022-07-22T04:30:02;99740.94;;;15.83;83.74
73151;BME280;61354;50.758;6.106;2022-07-22T04:32:28;99741.28;;;15.78;83.53
73151;BME280;61354;50.758;6.106;2022-07-22T04:34:54;99741.63;;;15.73;83.72
73151;BME280;61354;50.758;6.106;2022-07-22T04:37:19;99729.69;;;15.79;83.14
73151;BME280;61354;50.758;6.106;2022-07-22T04:39:45;99733.81;;;15.62;82.28
73151;BME280;61354;50.758;6.106;2022-07-22T04:42:10;99731.59;;;15.72;83.83
73151;BME280;61354;50.758;6.106;2022-07-22T04:44:36;99727.63;;;15.73;84.43
73151;BME280;61354;50.758;6.106;2022-07-22T04:47:01;99737.56;;;15.70;84.20
73151;BME280;61354;50.758;6.106;2022-07-22T04:49:27;99725.97;;;15.68;84.46
73151;BME280;61354;50.758;6.106;2022-07-22T04:51:52;99732.88;;;15.78;85.01
73151;BME280;61354;50.758;6.106;2022-07-22T04:54:18;99730.94;;;15.82;84.80
73151;BME280;61354;50.758;6.106;2022-07-22T04:56:43;99734.81;;;15.74;84.21
73151;BME280;61354;50.758;6.106;2022-07-22T04:59:09;99726.59;;;15.84;84.41
73151;BME280;61354;50.758;6.106;2022-07-22T05:01:34;99731.34;;;15.84;85.19
73151;BME280;61354;50.758;6.106;2022-07-22T05:04:01;99730.75;;;15.68;85.27
73151;BME280;61354;50.758;6.106;2022-07-22T05:06:26;99724.16;;;15.83;85.05
73151;BME280;61354;50.758;6.106;2022-07-22T05:08:52;99724.34;;;15.97;85.38
73151;BME280;61354;50.758;6.106;2022-07-22T05:11:17;99726.19;;;15.86;85.77
73151;BME280;61354;50.758;6.106;2022-07-22T05:13:43;99727.97;;;15.71;85.25
73151;BME280;61354;50.758;6.106;2022-07-22T05:16:09;99724.88;;;15.76;85.12
73151;BME280;61354;50.758;6.106;2022-07-22T05:18:34;99724.72;;;15.65;84.48
73151;BME280;61354;50.758;6.106;2022-07-22T05:21:00;99725.44;;;15.62;84.08
73151;BME280;61354;50.758;6.106;2022-07-22T05:23:26;99734.50;;;15.79;84.20
73151;BME280;61354;50.758;6.106;2022-07-22T05:25:51;99733.00;;;15.85;84.28
73151;BME280;61354;50.758;6.106;2022-07-22T05:28:17;99729.63;;;15.76;83.17
73151;BME280;61354;50.758;6.106;2022-07-22T05:30:44;99718.34;;;15.69;83.80
73151;BME280;61354;50.758;6.106;2022-07-22T05:33:10;99717.56;;;15.68;83.59
73151;BME280;61354;50.758;6.106;2022-07-22T05:35:35;99723.28;;;15.79;84.08
73151;BME280;61354;50.758;6.106;2022-07-22T05:38:01;99725.09;;;15.94;84.85
73151;BME280;61354;50.758;6.106;2022-07-22T05:40:26;99720.16;;;15.84;80.38
73151;BME280;61354;50.758;6.106;2022-07-22T05:42:54;99719.28;;;15.76;79.02
73151;BME280;61354;50.758;6.106;2022-07-22T05:45:20;99723.28;;;15.79;78.90
73151;BME280;61354;50.758;6.106;2022-07-22T05:47:45;99726.66;;;15.91;80.62
73151;BME280;61354;50.758;6.106;2022-07-22T05:50:11;99734.72;;;15.93;78.27
73151;BME280;61354;50.758;6.106;2022-07-22T05:52:37;99730.72;;;15.94;78.96
73151;BME280;61354;50.758;6.106;2022-07-22T05:55:05;99729.09;;;15.93;78.84
73151;BME280;61354;50.758;6.106;2022-07-22T05:57:31;99721.63;;;16.04;79.25
73151;BME280;61354;50.758;6.106;2022-07-22T05:59:56;99717.94;;;15.97;78.81
73151;BME280;61354;50.758;6.106;2022-07-22T06:02:22;99715.72;;;16.09;78.57
73151;BME280;61354;50.758;6.106;2022-07-22T06:04:48;99717.16;;;16.00;77.74
73151;BME280;61354;50.758;6.106;2022-07-22T06:07:13;99721.03;;;16.18;79.06
73151;BME280;61354;50.758;6.106;2022-07-22T06:09:39;99724.66;;;16.22;79.58
73151;BME280;61354;50.758;6.106;2022-07-22T06:12:05;99724.97;;;16.13;77.68
73151;BME280;61354;50.758;6.106;2022-07-22T06:14:30;99717.91;;;16.27;78.11
73151;BME280;61354;50.758;6.106;2022-07-22T06:16:57;99716.03;;;16.38;79.60
73151;BME280;61354;50.758;6.106;2022-07-22T06:19:22;99719.56;;;16.31;77.76
73151;BME280;61354;50.758;6.106;2022-07-22T06:21:49;99722.47;;;16.42;79.64
73151;BME280;61354;50.758;6.106;2022-07-22T06:24:15;99718.56;;;16.47;78.82
73151;BME280;61354;50.758;6.106;2022-07-22T06:26:41;99722.38;;;16.31;76.70
73151;BME280;61354;50.758;6.106;2022-07-22T06:29:07;99710.72;;;16.26;76.76
73151;BME280;61354;50.758;6.106;2022-07-22T06:31:32;99715.72;;;16.43;77.29
73151;BME280;61354;50.758;6.106;2022-07-22T06:33:57;99717.56;;;16.32;77.16
73151;BME280;61354;50.758;6.106;2022-07-22T06:36:23;99710.84;;;16.40;76.75
73151;BME280;61354;50.758;6.106;2022-07-22T06:38:49;99714.16;;;16.49;75.39
73151;BME280;61354;50.758;6.106;2022-07-22T06:41:15;99713.72;;;16.44;75.49
73151;BME280;61354;50.758;6.106;2022-07-22T06:43:45;99708.16;;;16.47;75.88
73151;BME280;61354;50.758;6.106;2022-07-22T06:46:10;99710.94;;;16.47;76.47
73151;BME280;61354;50.758;6.106;2022-07-22T06:48:36;99716.13;;;16.45;75.79
73151;BME280;61354;50.758;6.106;2022-07-22T06:51:01;99719.97;;;16.33;75.93
73151;BME280;61354;50.758;6.106;2022-07-22T06:53:27;99719.69;;;16.42;75.40
73151;BME280;61354;50.758;6.106;2022-07-22T06:55:53;99713.03;;;16.57;75.44
73151;BME280;61354;50.758;6.106;2022-07-22T06:58:18;99713.66;;;16.74;78.48
73151;BME280;61354;50.758;6.106;2022-07-22T07:00:44;99716.50;;;16.77;76.43
73151;BME280;61354;50.758;6.106;2022-07-22T07:03:10;99708.03;;;16.74;75.05
73151;BME280;61354;50.758;6.106;2022-07-22T07:05:42;99707.59;;;16.72;76.05
73151;BME280;61354;50.758;6.106;2022-07-22T07:08:08;99696.50;;;16.82;74.87
73151;BME280;61354;50.758;6.106;2022-07-22T07:10:34;99705.75;;;16.86;74.86
73151;BME280;61354;50.758;6.106;2022-07-22T07:12:59;99707.75;;;16.86;74.49
73151;BME280;61354;50.758;6.106;2022-07-22T07:15:25;99705.16;;;16.70;75.13
73151;BME280;61354;50.758;6.106;2022-07-22T07:17:54;99697.66;;;16.78;75.19
73151;BME280;61354;50.758;6.106;2022-07-22T07:20:20;99702.22;;;16.93;74.58
73151;BME280;61354;50.758;6.106;2022-07-22T07:22:46;99701.75;;;16.84;75.19
73151;BME280;61354;50.758;6.106;2022-07-22T07:25:12;99705.50;;;17.02;77.03
73151;BME280;61354;50.758;6.106;2022-07-22T07:27:38;99701.59;;;17.14;74.97
73151;BME280;61354;50.758;6.106;2022-07-22T07:30:04;99701.97;;;17.09;74.76
73151;BME280;61354;50.758;6.106;2022-07-22T07:32:30;99697.25;;;16.76;74.78
73151;BME280;61354;50.758;6.106;2022-07-22T07:34:56;99699.50;;;16.66;74.00
73151;BME280;61354;50.758;6.106;2022-07-22T07:37:21;99701.38;;;16.89;74.79
73151;BME280;61354;50.758;6.106;2022-07-22T07:39:47;99709.66;;;16.75;74.54
73151;BME280;61354;50.758;6.106;2022-07-22T07:42:12;99708.47;;;16.76;74.07
73151;BME280;61354;50.758;6.106;2022-07-22T07:44:38;99703.91;;;17.01;75.69
73151;BME280;61354;50.758;6.106;2022-07-22T07:47:03;99695.22;;;17.17;74.65
73151;BME280;61354;50.758;6.106;2022-07-22T07:49:29;99693.41;;;16.95;74.52
73151;BME280;61354;50.758;6.106;2022-07-22T07:51:55;99698.63;;;16.93;73.50
73151;BME280;61354;50.758;6.106;2022-07-22T07:54:21;99703.06;;;16.97;73.34
73151;BME280;61354;50.758;6.106;2022-07-22T07:56:47;99700.00;;;17.17;74.90
73151;BME280;61354;50.758;6.106;2022-07-22T07:59:12;99702.41;;;17.14;75.30
73151;BME280;61354;50.758;6.106;2022-07-22T08:01:38;99702.88;;;17.24;73.76
73151;BME280;61354;50.758;6.106;2022-07-22T08:04:04;99706.03;;;17.19;74.16
73151;BME280;61354;50.758;6.106;2022-07-22T08:06:30;99700.72;;;17.06;73.13
73151;BME280;61354;50.758;6.106;2022-07-22T08:08:55;99702.38;;;17.11;74.95
73151;BME280;61354;50.758;6.106;2022-07-22T08:11:21;99697.19;;;17.17;73.52
73151;BME280;61354;50.758;6.106;2022-07-22T08:13:47;99705.53;;;17.06;72.54
73151;BME280;61354;50.758;6.106;2022-07-22T08:16:12;99698.44;;;17.23;73.24
73151;BME280;61354;50.758;6.106;2022-07-22T08:18:38;99702.94;;;17.31;72.84
73151;BME280;61354;50.758;6.106;2022-07-22T08:21:03;99696.78;;;17.14;73.82
73151;BME280;61354;50.758;6.106;2022-07-22T08:23:29;99706.88;;;17.23;73.59
73151;BME280;61354;50.758;6.106;2022-07-22T08:25:55;99703.63;;;17.21;71.45
73151;BME280;61354;50.758;6.106;2022-07-22T08:28:20;99700.19;;;17.38;73.95
73151;BME280;61354;50.758;6.106;2022-07-22T08:30:46;99698.22;;;17.49;74.16
73151;BME280;61354;50.758;6.106;2022-07-22T08:33:12;99706.31;;;17.54;72.71
73151;BME280;61354;50.758;6.106;2022-07-22T08:35:37;99703.06;;;17.52;72.16
73151;BME280;61354;50.758;6.106;2022-07-22T08:38:03;99702.34;;;17.62;72.59
73151;BME280;61354;50.758;6.106;2022-07-22T08:40:29;99704.47;;;17.80;71.21
73151;BME280;61354;50.758;6.106;2022-07-22T08:42:55;99702.84;;;17.75;70.99
73151;BME280;61354;50.758;6.106;2022-07-22T08:45:20;99704.06;;;17.81;71.78
73151;BME280;61354;50.758;6.106;2022-07-22T08:47:50;99706.59;;;18.08;71.17
73151;BME280;61354;50.758;6.106;2022-07-22T08:50:16;99704.25;;;18.24;70.99
73151;BME280;61354;50.758;6.106;2022-07-22T08:52:45;99687.88;;;18.44;72.09
73151;BME280;61354;50.758;6.106;2022-07-22T08:55:11;99695.81;;;18.24;69.34
73151;BME280;61354;50.758;6.106;2022-07-22T08:57:36;99688.69;;;18.52;71.44
73151;BME280;61354;50.758;6.106;2022-07-22T09:00:09;99691.09;;;18.43;70.89
73151;BME280;61354;50.758;6.106;2022-07-22T09:02:38;99699.91;;;18.41;70.43
73151;BME280;61354;50.758;6.106;2022-07-22T09:05:06;99697.56;;;18.64;69.68
73151;BME280;61354;50.758;6.106;2022-07-22T09:07:37;99683.84;;;18.49;70.25
73151;BME280;61354;50.758;6.106;2022-07-22T09:10:06;99693.09;;;18.42;71.73
73151;BME280;61354;50.758;6.106;2022-07-22T09:12:32;99691.88;;;18.43;69.75
73151;BME280;61354;50.758;6.106;2022-07-22T09:15:01;99688.66;;;18.37;69.96
73151;BME280;61354;50.758;6.106;2022-07-22T09:17:33;99695.44;;;18.26;68.39
73151;BME280;61354;50.758;6.106;2022-07-22T09:20:03;99686.66;;;18.45;69.94
73151;BME280;61354;50.758;6.106;2022-07-22T09:22:43;99681.44;;;18.44;70.64
73151;BME280;61354;50.758;6.106;2022-07-22T09:25:19;99673.41;;;18.49;68.66
73151;BME280;61354;50.758;6.106;2022-07-22T09:27:45;99684.56;;;18.13;69.64
73151;BME280;61354;50.758;6.106;2022-07-22T09:30:14;99679.03;;;18.38;70.98
73151;BME280;61354;50.758;6.106;2022-07-22T09:32:41;99675.81;;;18.47;69.50
73151;BME280;61354;50.758;6.106;2022-07-22T09:35:07;99673.44;;;18.63;71.29
73151;BME280;61354;50.758;6.106;2022-07-22T09:37:33;99669.47;;;18.82;69.85
73151;BME280;61354;50.758;6.106;2022-07-22T09:40:29;99665.88;;;19.00;70.25
73151;BME280;61354;50.758;6.106;2022-07-22T09:42:56;99673.13;;;19.04;69.36
73151;BME280;61354;50.758;6.106;2022-07-22T09:45:23;99656.59;;;18.78;67.52
73151;BME280;61354;50.758;6.106;2022-07-22T09:47:49;99662.25;;;19.03;68.41
73151;BME280;61354;50.758;6.106;2022-07-22T09:50:23;99651.78;;;19.03;69.97
73151;BME280;61354;50.758;6.106;2022-07-22T09:52:51;99659.03;;;18.83;68.57
73151;BME280;61354;50.758;6.106;2022-07-22T09:55:19;99648.53;;;18.58;68.63
73151;BME280;61354;50.758;6.106;2022-07-22T09:57:45;99646.97;;;19.00;68.05
73151;BME280;61354;50.758;6.106;2022-07-22T10:00:12;99646.16;;;18.96;68.35
73151;BME280;61354;50.758;6.106;2022-07-22T10:02:47;99643.34;;;19.07;68.05
73151;BME280;61354;50.758;6.106;2022-07-22T10:05:15;99637.72;;;19.18;66.85
73151;BME280;61354;50.758;6.106;2022-07-22T10:07:42;99635.72;;;18.86;67.98
73151;BME280;61354;50.758;6.106;2022-07-22T10:10:09;99628.47;;;19.06;68.99
73151;BME280;61354;50.758;6.106;2022-07-22T10:12:36;99630.09;;;18.79;65.67
73151;BME280;61354;50.758;6.106;2022-07-22T10:15:03;99632.50;;;18.98;66.95
73151;BME280;61354;50.758;6.106;2022-07-22T10:17:29;99630.88;;;19.01;66.80
73151;BME280;61354;50.758;6.106;2022-07-22T10:19:56;99629.25;;;18.68;66.91
73151;BME280;61354;50.758;6.106;2022-07-22T10:25:08;99630.09;;;19.04;69.97
73151;BME280;61354;50.758;6.106;2022-07-22T10:27:47;99636.88;;;19.35;69.41
73151;BME280;61354;50.758;6.106;2022-07-22T10:30:14;99630.81;;;19.40;69.11
73151;BME280;61354;50.758;6.106;2022-07-22T10:32:41;99636.88;;;19.42;67.18
73151;BME280;61354;50.758;6.106;2022-07-22T10:37:39;99635.66;;;19.40;66.60
73151;BME280;61354;50.758;6.106;2022-07-22T10:40:14;99639.69;;;19.35;66.52
73151;BME280;61354;50.758;6.106;2022-07-22T10:46:10;99634.03;;;19.64;67.16
73151;BME280;61354;50.758;6.106;2022-07-22T10:48:19;99624.38;;;19.36;66.57
73151;BME280;61354;50.758;6.106;2022-07-22T10:50:53;99621.94;;;19.67;67.78
73151;BME280;61354;50.758;6.106;2022-07-22T10:56:22;99616.25;;;19.74;65.31
73151;BME280;61354;50.758;6.106;2022-07-22T10:59:08;99609.78;;;19.84;65.30
73151;BME280;61354;50.758;6.106;2022-07-22T11:01:36;99612.91;;;20.07;68.59
73151;BME280;61354;50.758;6.106;2022-07-22T11:04:11;99608.41;;;20.21;68.57
73151;BME280;61354;50.758;6.106;2022-07-22T11:06:37;99609.00;;;19.83;65.08
73151;BME280;61354;50.758;6.106;2022-07-22T11:09:05;99614.84;;;20.18;68.17
73151;BME280;61354;50.758;6.106;2022-07-22T11:16:37;99615.59;;;20.32;66.11
73151;BME280;61354;50.758;6.106;2022-07-22T11:19:03;99616.22;;;19.92;64.80
73151;BME280;61354;50.758;6.106;2022-07-22T11:21:31;99604.94;;;19.92;65.40
73151;BME280;61354;50.758;6.106;2022-07-22T11:23:59;99601.53;;;20.22;65.83
73151;BME280;61354;50.758;6.106;2022-07-22T11:26:32;99612.78;;;20.32;65.93
73151;BME280;61354;50.758;6.106;2022-07-22T11:28:58;99612.34;;;20.34;64.64
73151;BME280;61354;50.758;6.106;2022-07-22T11:31:24;99598.25;;;20.34;64.72
73151;BME280;61354;50.758;6.106;2022-07-22T11:33:49;99600.94;;;20.55;67.32
73151;BME280;61354;50.758;6.106;2022-07-22T11:36:15;99587.28;;;20.50;63.49
73151;BME280;61354;50.758;6.106;2022-07-22T11:38:47;99595.09;;;20.25;65.01
73151;BME280;61354;50.758;6.106;2022-07-22T11:41:15;99589.66;;;20.55;65.15
73151;BME280;61354;50.758;6.106;2022-07-22T11:43:43;99586.38;;;20.60;64.27
73151;BME280;61354;50.758;6.106;2022-07-22T11:46:10;99587.59;;;20.59;63.40
73151;BME280;61354;50.758;6.106;2022-07-22T11:48:36;99578.72;;;20.61;64.48
73151;BME280;61354;50.758;6.106;2022-07-22T11:51:04;99583.81;;;20.77;65.48
73151;BME280;61354;50.758;6.106;2022-07-22T11:53:30;99589.09;;;20.75;67.54
73151;BME280;61354;50.758;6.106;2022-07-22T11:55:57;99581.28;;;20.93;64.82
73151;BME280;61354;50.758;6.106;2022-07-22T11:58:40;99573.78;;;21.17;65.96
73151;BME280;61354;50.758;6.106;2022-07-22T12:01:08;99576.94;;;21.23;62.57
73151;BME280;61354;50.758;6.106;2022-07-22T12:03:35;99571.75;;;21.18;62.81
73151;BME280;61354;50.758;6.106;2022-07-22T12:06:02;99565.19;;;21.28;62.76
73151;BME280;61354;50.758;6.106;2022-07-22T12:08:29;99558.63;;;21.42;62.95
73151;BME280;61354;50.758;6.106;2022-07-22T12:10:56;99570.00;;;21.31;62.81
73151;BME280;61354;50.758;6.106;2022-07-22T12:13:27;99574.69;;;21.48;64.28
73151;BME280;61354;50.758;6.106;2022-07-22T12:15:52;99558.88;;;21.17;61.55
73151;BME280;61354;50.758;6.106;2022-07-22T12:18:20;99554.81;;;21.18;61.27
73151;BME280;61354;50.758;6.106;2022-07-22T12:20:48;99549.94;;;21.22;63.52
73151;BME280;61354;50.758;6.106;2022-07-22T12:23:14;99549.72;;;21.43;63.63
73151;BME280;61354;50.758;6.106;2022-07-22T12:25:50;99537.53;;;21.50;63.24
73151;BME280;61354;50.758;6.106;2022-07-22T12:28:16;99547.19;;;21.52;61.99
73151;BME280;61354;50.758;6.106;2022-07-22T12:30:42;99553.69;;;21.49;63.91
73151;BME280;61354;50.758;6.106;2022-07-22T12:33:18;99535.97;;;21.45;61.59
73151;BME280;61354;50.758;6.106;2022-07-22T12:35:44;99540.50;;;21.70;63.23
73151;BME280;61354;50.758;6.106;2022-07-22T12:38:10;99533.31;;;21.65;61.68
73151;BME280;61354;50.758;6.106;2022-07-22T12:40:37;99532.59;;;21.57;60.44
73151;BME280;61354;50.758;6.106;2022-07-22T12:43:07;99535.91;;;21.52;60.49
73151;BME280;61354;50.758;6.106;2022-07-22T12:45:38;99537.16;;;21.06;62.15
73151;BME280;61354;50.758;6.106;2022-07-22T12:48:06;99535.53;;;21.47;62.77
73151;BME280;61354;50.758;6.106;2022-07-22T12:53:00;99527.63;;;21.31;62.15
73151;BME280;61354;50.758;6.106;2022-07-22T12:55:34;99532.72;;;21.47;62.88
73151;BME280;61354;50.758;6.106;2022-07-22T12:58:00;99530.88;;;21.64;62.15
73151;BME280;61354;50.758;6.106;2022-07-22T13:00:29;99534.97;;;21.59;61.08
73151;BME280;61354;50.758;6.106;2022-07-22T13:02:55;99526.22;;;21.50;60.99
73151;BME280;61354;50.758;6.106;2022-07-22T13:05:22;99539.28;;;21.71;63.38
73151;BME280;61354;50.758;6.106;2022-07-22T13:07:48;99525.44;;;21.49;60.58
73151;BME280;61354;50.758;6.106;2022-07-22T13:10:14;99527.13;;;21.74;60.97
73151;BME280;61354;50.758;6.106;2022-07-22T13:12:40;99514.50;;;22.09;60.21
73151;BME280;61354;50.758;6.106;2022-07-22T13:15:06;99507.50;;;22.21;61.36